createdAt,value
2023-04-26T00:02:05.224Z,10.33
2023-04-26T00:04:34.383Z,10.12
2023-04-26T00:07:02.123Z,10.28
2023-04-26T00:09:29.805Z,10.33
2023-04-26T00:11:57.711Z,10.31
2023-04-26T00:14:25.218Z,10.33
2023-04-26T00:16:53.039Z,10.15
2023-04-26T00:19:21.477Z,10.15
2023-04-26T00:21:49.086Z,9.86
2023-04-26T00:24:16.529Z,9.94
2023-04-26T00:26:44.049Z,10.01
2023-04-26T00:29:11.529Z,10.11
2023-04-26T00:31:39.135Z,9.98
2023-04-26T00:34:06.676Z,10.00
2023-04-26T00:36:34.273Z,9.98
2023-04-26T00:39:01.502Z,9.99
2023-04-26T00:41:29.047Z,9.93
2023-04-26T00:43:56.355Z,9.89
2023-04-26T00:46:24.084Z,9.89
2023-04-26T00:48:52.153Z,9.87
2023-04-26T00:51:20.440Z,9.74
2023-04-26T00:53:49.023Z,9.44
2023-04-26T00:56:17.309Z,9.58
2023-04-26T00:58:46.382Z,9.53
2023-04-26T01:01:14.124Z,9.44
2023-04-26T01:03:41.573Z,9.41
2023-04-26T01:06:09.336Z,9.34
2023-04-26T01:08:36.741Z,9.07
2023-04-26T01:11:05.478Z,9.12
2023-04-26T01:13:32.965Z,9.23
2023-04-26T01:16:02.220Z,8.98
2023-04-26T01:18:29.499Z,9.00
2023-04-26T01:20:57.283Z,8.98
2023-04-26T01:23:24.614Z,8.81
2023-04-26T01:25:53.824Z,8.94
2023-04-26T01:28:21.142Z,8.94
2023-04-26T01:30:48.924Z,8.79
2023-04-26T01:33:16.454Z,8.50
2023-04-26T01:35:45.065Z,8.52
2023-04-26T01:38:14.715Z,8.58
2023-04-26T01:40:46.191Z,8.60
2023-04-26T01:43:15.584Z,8.68
2023-04-26T01:45:47.181Z,8.55
2023-04-26T01:48:14.578Z,8.14
2023-04-26T01:50:42.192Z,8.35
2023-04-26T01:53:09.455Z,8.47
2023-04-26T01:55:37.317Z,8.29
2023-04-26T01:58:04.605Z,8.16
2023-04-26T02:00:33.871Z,8.30
2023-04-26T02:03:01.243Z,8.33
2023-04-26T02:05:29.045Z,7.98
2023-04-26T02:07:56.720Z,8.25
2023-04-26T02:10:24.319Z,8.21
2023-04-26T02:12:51.626Z,8.23
2023-04-26T02:15:19.271Z,8.19
2023-04-26T02:17:47.014Z,8.15
2023-04-26T02:20:14.618Z,8.05
2023-04-26T02:22:41.908Z,8.09
2023-04-26T02:25:09.824Z,8.13
2023-04-26T02:27:37.218Z,8.13
2023-04-26T02:30:06.039Z,8.00
2023-04-26T02:32:33.429Z,7.95
2023-04-26T02:35:00.978Z,7.98
2023-04-26T02:37:28.334Z,7.98
2023-04-26T02:39:56.067Z,7.83
2023-04-26T02:42:24.957Z,7.44
2023-04-26T02:44:52.523Z,7.51
2023-04-26T02:47:19.855Z,6.98
2023-04-26T02:49:47.737Z,7.32
2023-04-26T02:52:15.079Z,7.31
2023-04-26T02:54:42.573Z,7.11
2023-04-26T02:57:09.998Z,7.19
2023-04-26T02:59:37.553Z,7.17
2023-04-26T03:02:04.889Z,7.11
2023-04-26T03:04:36.207Z,7.04
2023-04-26T03:07:04.674Z,7.03
2023-04-26T03:09:32.355Z,7.15
2023-04-26T03:12:00.480Z,7.02
2023-04-26T03:14:28.032Z,7.07
2023-04-26T03:16:55.634Z,6.85
2023-04-26T03:19:23.986Z,7.03
2023-04-26T03:21:51.701Z,6.72
2023-04-26T03:24:19.257Z,6.68
2023-04-26T03:26:47.790Z,6.63
2023-04-26T03:29:17.914Z,6.67
2023-04-26T03:31:46.103Z,6.28
2023-04-26T03:34:15.868Z,6.26
2023-04-26T03:36:43.634Z,6.16
2023-04-26T03:39:11.612Z,6.11
2023-04-26T03:41:40.510Z,6.19
2023-04-26T03:44:08.202Z,5.98
2023-04-26T03:46:35.516Z,6.15
2023-04-26T03:49:03.134Z,5.80
2023-04-26T03:51:31.442Z,5.77
2023-04-26T03:53:59.839Z,6.02
2023-04-26T03:56:27.141Z,5.84
2023-04-26T03:58:54.768Z,5.96
2023-04-26T04:01:22.030Z,5.94
2023-04-26T04:03:49.860Z,6.16
2023-04-26T04:06:17.471Z,6.18
2023-04-26T04:08:45.119Z,6.20
2023-04-26T04:11:12.386Z,5.98
2023-04-26T04:13:40.129Z,5.96
2023-04-26T04:16:10.307Z,6.01
2023-04-26T04:18:38.178Z,6.02
2023-04-26T04:21:05.593Z,6.34
2023-04-26T04:23:33.156Z,6.29
2023-04-26T04:26:00.555Z,6.12
2023-04-26T04:28:28.160Z,5.88
2023-04-26T04:30:57.223Z,5.99
2023-04-26T04:33:28.679Z,5.90
2023-04-26T04:35:56.564Z,5.90
2023-04-26T04:38:24.613Z,5.98
2023-04-26T04:40:52.366Z,5.92
2023-04-26T04:43:21.498Z,5.79
2023-04-26T04:45:49.537Z,6.05
2023-04-26T04:48:18.612Z,6.19
2023-04-26T04:50:46.004Z,6.04
2023-04-26T04:53:13.592Z,6.33
2023-04-26T04:55:41.752Z,6.02
2023-04-26T04:58:09.272Z,6.15
2023-04-26T05:00:38.165Z,6.26
2023-04-26T05:03:05.861Z,6.50
2023-04-26T05:05:33.665Z,6.26
2023-04-26T05:08:01.324Z,6.76
2023-04-26T05:10:28.655Z,6.92
2023-04-26T05:12:56.215Z,6.76
2023-04-26T05:15:23.536Z,6.83
2023-04-26T05:17:51.887Z,6.88
2023-04-26T05:20:19.277Z,6.78
2023-04-26T05:22:47.638Z,6.89
2023-04-26T05:25:15.176Z,6.75
2023-04-26T05:27:42.836Z,6.64
2023-04-26T05:30:11.080Z,6.83
2023-04-26T05:32:38.699Z,6.75
2023-04-26T05:35:06.361Z,6.55
2023-04-26T05:37:34.620Z,6.97
2023-04-26T05:40:02.364Z,7.21
2023-04-26T05:42:29.930Z,7.49
2023-04-26T05:45:00.308Z,7.51
2023-04-26T05:47:27.996Z,7.65
2023-04-26T05:49:55.240Z,7.43
2023-04-26T05:52:23.171Z,7.66
2023-04-26T05:54:50.478Z,7.90
2023-04-26T05:57:19.137Z,7.83
2023-04-26T05:59:47.075Z,7.96
2023-04-26T06:02:14.726Z,8.00
2023-04-26T06:04:42.209Z,8.16
2023-04-26T06:07:10.093Z,7.60
2023-04-26T06:09:37.525Z,8.00
2023-04-26T06:12:05.839Z,8.08
2023-04-26T06:14:33.209Z,8.26
2023-04-26T06:17:19.295Z,8.45
2023-04-26T06:19:47.004Z,8.36
2023-04-26T06:22:14.585Z,8.55
2023-04-26T06:24:42.017Z,8.33
2023-04-26T06:27:09.590Z,8.31
2023-04-26T06:29:36.852Z,8.44
2023-04-26T06:32:04.747Z,8.58
2023-04-26T06:34:32.064Z,8.68
2023-04-26T06:36:59.812Z,9.21
2023-04-26T06:39:27.222Z,9.90
2023-04-26T06:41:54.828Z,10.22
2023-04-26T06:44:22.321Z,10.27
2023-04-26T06:46:49.920Z,10.66
2023-04-26T06:49:17.217Z,10.97
2023-04-26T06:51:44.775Z,11.28
2023-04-26T06:54:13.144Z,11.30
2023-04-26T06:56:40.917Z,11.66
2023-04-26T06:59:08.403Z,11.85
2023-04-26T07:01:36.163Z,10.58
2023-04-26T07:04:08.211Z,10.90
2023-04-26T07:06:37.505Z,10.49
2023-04-26T07:09:05.385Z,10.45
2023-04-26T07:11:33.003Z,10.55
2023-04-26T07:14:00.542Z,11.02
2023-04-26T07:16:28.525Z,11.31
2023-04-26T07:18:59.659Z,11.27
2023-04-26T07:21:27.388Z,11.86
2023-04-26T07:23:58.201Z,11.17
2023-04-26T07:26:27.865Z,11.41
2023-04-26T07:28:55.588Z,11.21
2023-04-26T07:31:23.401Z,10.27
2023-04-26T07:33:51.141Z,10.01
2023-04-26T07:36:19.010Z,11.37
2023-04-26T07:38:46.278Z,10.69
2023-04-26T07:41:14.107Z,10.63
2023-04-26T07:43:41.417Z,10.67
2023-04-26T07:46:09.066Z,11.33
2023-04-26T07:48:36.778Z,11.50
2023-04-26T07:51:14.218Z,11.89
2023-04-26T07:53:41.787Z,11.52
2023-04-26T07:56:10.182Z,11.27
2023-04-26T07:58:39.695Z,10.62
2023-04-26T08:01:07.673Z,10.67
2023-04-26T08:03:35.169Z,11.38
2023-04-26T08:06:03.465Z,11.65
2023-04-26T08:08:32.376Z,11.00
2023-04-26T08:11:00.044Z,11.01
2023-04-26T08:13:29.355Z,11.84
2023-04-26T08:15:57.343Z,11.66
2023-04-26T08:18:24.643Z,11.52
2023-04-26T08:20:55.236Z,11.71
2023-04-26T08:23:23.325Z,12.65
2023-04-26T08:25:51.009Z,12.49
2023-04-26T08:28:18.339Z,11.37
2023-04-26T08:30:45.936Z,11.48
2023-04-26T08:33:13.305Z,12.76
2023-04-26T08:35:41.308Z,13.45
2023-04-26T08:38:08.601Z,12.48
2023-04-26T08:40:36.981Z,12.46
2023-04-26T08:43:04.445Z,11.14
2023-04-26T08:45:35.374Z,11.97
2023-04-26T08:48:14.980Z,12.42
2023-04-26T08:50:46.713Z,12.32
2023-04-26T08:53:18.246Z,13.88
2023-04-26T08:55:53.390Z,13.02
2023-04-26T08:58:21.888Z,12.29
2023-04-26T09:00:51.399Z,12.04
2023-04-26T09:03:19.064Z,12.04
2023-04-26T09:05:47.246Z,12.44
2023-04-26T09:08:18.399Z,12.79
2023-04-26T09:10:46.664Z,12.59
2023-04-26T09:13:14.603Z,12.65
2023-04-26T09:15:42.478Z,11.67
2023-04-26T09:18:23.432Z,11.50
2023-04-26T09:21:08.725Z,11.82
2023-04-26T09:23:36.718Z,13.94
2023-04-26T09:26:21.686Z,20.72
2023-04-26T09:28:50.676Z,17.64
2023-04-26T09:31:46.342Z,15.11
2023-04-26T09:34:16.171Z,13.11
2023-04-26T09:36:57.257Z,13.22
2023-04-26T09:39:35.523Z,12.52
2023-04-26T09:42:04.968Z,12.70
2023-04-26T09:44:33.052Z,12.60
2023-04-26T09:47:10.443Z,13.42
2023-04-26T09:49:51.882Z,13.61
2023-04-26T09:52:20.394Z,13.02
2023-04-26T09:54:51.895Z,12.38
2023-04-26T09:57:22.425Z,12.19
2023-04-26T09:59:55.044Z,10.69
2023-04-26T10:02:28.202Z,11.09
2023-04-26T10:04:57.603Z,12.77
2023-04-26T10:07:26.347Z,20.49
2023-04-26T10:09:55.856Z,17.53
2023-04-26T10:12:23.668Z,18.57
2023-04-26T10:14:51.061Z,23.46
2023-04-26T10:17:21.161Z,34.51
2023-04-26T10:19:54.900Z,37.82
2023-04-26T10:22:32.381Z,42.48
2023-04-26T10:25:00.565Z,31.28
2023-04-26T10:27:46.980Z,20.95
2023-04-26T10:30:17.492Z,19.04
2023-04-26T10:32:56.999Z,19.70
2023-04-26T10:35:29.300Z,21.64
2023-04-26T10:37:59.706Z,16.66
2023-04-26T10:40:29.529Z,16.27
2023-04-26T10:43:09.904Z,15.57
2023-04-26T10:45:38.486Z,15.20
2023-04-26T10:48:22.650Z,22.74
2023-04-26T10:51:02.225Z,34.15
2023-04-26T10:53:48.877Z,38.80
2023-04-26T10:56:27.994Z,35.59
2023-04-26T10:59:33.344Z,37.75
2023-04-26T11:02:01.524Z,38.61
2023-04-26T11:04:53.158Z,26.71
2023-04-26T11:07:39.495Z,24.46
2023-04-26T11:10:23.323Z,22.44
2023-04-26T11:13:03.285Z,20.26
2023-04-26T11:15:34.775Z,19.66
2023-04-26T11:18:06.258Z,18.85
2023-04-26T11:20:34.598Z,18.91
2023-04-26T11:23:02.621Z,19.16
2023-04-26T11:25:30.722Z,18.27
2023-04-26T11:28:03.307Z,17.43
2023-04-26T11:30:32.984Z,16.58
2023-04-26T11:33:02.674Z,16.25
2023-04-26T11:35:33.487Z,16.24
2023-04-26T11:38:01.003Z,16.46
2023-04-26T11:40:33.167Z,17.17
2023-04-26T11:43:08.589Z,17.20
2023-04-26T11:45:38.245Z,16.96
2023-04-26T11:48:10.553Z,16.82
2023-04-26T11:50:39.977Z,16.42
2023-04-26T11:53:08.959Z,16.60
2023-04-26T11:55:36.984Z,16.75
2023-04-26T11:58:13.978Z,16.73
2023-04-26T12:01:04.528Z,17.03
2023-04-26T12:03:35.501Z,17.74
2023-04-26T12:06:06.501Z,18.19
2023-04-26T12:08:34.189Z,17.89
2023-04-26T12:11:04.919Z,17.15
2023-04-26T12:13:33.023Z,17.57
2023-04-26T12:16:00.583Z,17.16
2023-04-26T12:18:32.972Z,16.96
2023-04-26T12:21:01.929Z,16.36
2023-04-26T12:23:40.945Z,15.53
2023-04-26T12:26:11.215Z,15.65
2023-04-26T12:28:38.553Z,15.50
2023-04-26T12:31:07.380Z,15.54
2023-04-26T12:33:35.887Z,15.54
2023-04-26T12:36:11.967Z,15.34
2023-04-26T12:38:40.643Z,15.00
2023-04-26T12:41:08.386Z,13.29
2023-04-26T12:43:35.736Z,14.01
2023-04-26T12:46:03.633Z,14.13
2023-04-26T12:48:30.935Z,14.61
2023-04-26T12:50:58.561Z,15.53
2023-04-26T12:53:25.948Z,15.92
2023-04-26T12:55:53.527Z,16.15
2023-04-26T12:58:22.445Z,16.09
2023-04-26T13:00:51.329Z,15.84
2023-04-26T13:03:18.803Z,16.24
2023-04-26T13:05:46.737Z,16.72
2023-04-26T13:08:14.292Z,17.01
2023-04-26T13:10:42.425Z,17.06
2023-04-26T13:13:09.708Z,16.60
2023-04-26T13:15:37.432Z,15.94
2023-04-26T13:18:05.179Z,15.72
2023-04-26T13:20:32.762Z,16.21
2023-04-26T13:23:00.004Z,16.31
2023-04-26T13:25:27.696Z,15.75
2023-04-26T13:27:55.584Z,15.54
2023-04-26T13:30:23.117Z,15.23
2023-04-26T13:32:50.561Z,15.28
2023-04-26T13:35:18.185Z,15.07
2023-04-26T13:37:45.575Z,15.30
2023-04-26T13:40:13.444Z,15.26
2023-04-26T13:42:41.391Z,15.42
2023-04-26T13:45:17.594Z,15.28
2023-04-26T13:47:46.135Z,15.60
2023-04-26T13:50:13.722Z,15.75
2023-04-26T13:52:40.993Z,15.23
2023-04-26T13:55:14.544Z,14.87
2023-04-26T13:57:42.279Z,14.37
2023-04-26T14:00:12.028Z,14.25
2023-04-26T14:02:39.591Z,13.87
2023-04-26T14:05:09.193Z,13.37
2023-04-26T14:07:36.722Z,12.92
2023-04-26T14:10:04.751Z,13.65
2023-04-26T14:12:32.028Z,14.35
2023-04-26T14:15:02.454Z,15.05
2023-04-26T14:17:29.889Z,15.68
2023-04-26T14:19:57.509Z,16.03
2023-04-26T14:22:26.917Z,16.09
2023-04-26T14:24:54.525Z,16.26
2023-04-26T14:27:21.847Z,16.25
2023-04-26T14:29:49.365Z,16.25
2023-04-26T14:32:16.852Z,16.32
2023-04-26T14:34:44.627Z,16.19
2023-04-26T14:37:12.084Z,16.30
2023-04-26T14:39:39.798Z,16.09
2023-04-26T14:42:07.069Z,15.94
2023-04-26T14:44:34.668Z,15.51
2023-04-26T14:47:01.920Z,14.90
2023-04-26T14:49:29.422Z,14.62
2023-04-26T14:51:56.712Z,14.31
2023-04-26T14:54:24.251Z,13.97
2023-04-26T14:56:52.011Z,14.16
2023-04-26T14:59:19.575Z,14.36
2023-04-26T15:01:47.167Z,14.27
2023-04-26T15:04:14.927Z,13.89
2023-04-26T15:06:42.440Z,14.07
2023-04-26T15:09:11.509Z,14.22
2023-04-26T15:11:38.960Z,14.26
2023-04-26T15:14:06.711Z,14.46
2023-04-26T15:16:35.674Z,14.63
2023-04-26T15:19:03.228Z,14.75
2023-04-26T15:21:34.133Z,14.59
2023-04-26T15:24:01.808Z,14.59
2023-04-26T15:26:31.105Z,14.31
2023-04-26T15:28:58.622Z,14.07
2023-04-26T15:31:25.899Z,13.91
2023-04-26T15:33:56.609Z,13.77
2023-04-26T15:36:24.262Z,13.48
2023-04-26T15:38:51.968Z,13.03
2023-04-26T15:41:19.306Z,13.18
2023-04-26T15:43:46.841Z,13.19
2023-04-26T15:46:15.186Z,13.25
2023-04-26T15:48:42.781Z,13.20
2023-04-26T15:51:10.091Z,13.39
2023-04-26T15:53:43.135Z,13.57
2023-04-26T15:56:18.163Z,13.34
2023-04-26T15:58:47.481Z,13.58
2023-04-26T16:01:15.556Z,13.70
2023-04-26T16:03:47.204Z,13.72
2023-04-26T16:06:15.574Z,13.69
2023-04-26T16:08:43.536Z,13.61
2023-04-26T16:11:11.262Z,13.57
2023-04-26T16:13:38.956Z,13.07
2023-04-26T16:16:10.835Z,12.73
2023-04-26T16:18:43.764Z,12.85
2023-04-26T16:21:12.450Z,12.77
2023-04-26T16:23:43.070Z,12.26
2023-04-26T16:26:10.354Z,12.27
2023-04-26T16:28:38.187Z,12.44
2023-04-26T16:31:06.461Z,12.08
2023-04-26T16:33:34.454Z,12.29
2023-04-26T16:36:01.901Z,12.22
2023-04-26T16:38:29.712Z,12.38
2023-04-26T16:41:01.777Z,12.40
2023-04-26T16:43:34.671Z,12.44
2023-04-26T16:46:05.139Z,12.51
2023-04-26T16:48:37.627Z,12.52
2023-04-26T16:51:08.001Z,12.53
2023-04-26T16:53:37.709Z,12.51
2023-04-26T16:56:05.764Z,12.40
2023-04-26T16:58:33.276Z,12.19
2023-04-26T17:01:00.583Z,12.16
2023-04-26T17:03:28.695Z,12.12
2023-04-26T17:05:56.180Z,11.99
2023-04-26T17:08:23.794Z,11.60
2023-04-26T17:10:52.011Z,11.84
2023-04-26T17:13:20.129Z,12.00
2023-04-26T17:15:48.360Z,12.05
2023-04-26T17:18:15.914Z,11.93
2023-04-26T17:20:43.208Z,11.99
2023-04-26T17:23:11.837Z,12.00
2023-04-26T17:25:39.118Z,12.00
2023-04-26T17:28:06.796Z,11.90
2023-04-26T17:30:34.168Z,12.01
2023-04-26T17:33:01.968Z,12.09
2023-04-26T17:35:29.320Z,11.97
2023-04-26T17:37:56.886Z,11.77
2023-04-26T17:40:24.350Z,11.61
2023-04-26T17:42:51.929Z,11.59
2023-04-26T17:45:19.256Z,11.31
2023-04-26T17:47:46.933Z,11.27
2023-04-26T17:50:15.526Z,11.16
2023-04-26T17:52:43.138Z,10.95
2023-04-26T17:55:10.590Z,10.87
2023-04-26T17:57:38.292Z,10.76
2023-04-26T18:00:07.021Z,10.66
2023-04-26T18:02:36.452Z,10.61
2023-04-26T18:05:05.918Z,10.46
2023-04-26T18:07:33.608Z,10.42
2023-04-26T18:10:00.986Z,10.39
2023-04-26T18:12:30.757Z,10.16
2023-04-26T18:14:58.485Z,10.22
2023-04-26T18:17:26.389Z,10.20
2023-04-26T18:19:53.736Z,10.22
2023-04-26T18:22:21.435Z,10.22
2023-04-26T18:24:48.816Z,9.60
2023-04-26T18:27:16.582Z,9.90
2023-04-26T18:29:44.204Z,9.93
2023-04-26T18:32:12.528Z,10.00
2023-04-26T18:34:40.194Z,10.13
2023-04-26T18:37:08.033Z,10.00
2023-04-26T18:39:35.508Z,10.14
2023-04-26T18:42:03.860Z,10.13
2023-04-26T18:44:31.279Z,10.03
2023-04-26T18:46:58.917Z,10.08
2023-04-26T18:49:27.444Z,10.06
2023-04-26T18:51:57.287Z,10.01
2023-04-26T18:54:24.744Z,9.94
2023-04-26T18:56:52.278Z,9.93
2023-04-26T18:59:19.605Z,9.79
2023-04-26T19:01:47.345Z,9.83
2023-04-26T19:04:14.862Z,9.72
2023-04-26T19:06:42.623Z,9.74
2023-04-26T19:09:13.041Z,9.71
2023-04-26T19:11:40.714Z,9.70
2023-04-26T19:14:07.974Z,9.71
2023-04-26T19:16:35.855Z,9.71
2023-04-26T19:19:03.441Z,9.67
2023-04-26T19:21:32.171Z,9.64
2023-04-26T19:23:59.446Z,9.60
2023-04-26T19:26:27.209Z,9.55
2023-04-26T19:28:56.305Z,9.52
2023-04-26T19:31:24.017Z,9.49
2023-04-26T19:33:51.469Z,9.46
2023-04-26T19:36:19.199Z,9.48
2023-04-26T19:38:48.551Z,9.32
2023-04-26T19:41:16.169Z,9.43
2023-04-26T19:43:43.696Z,9.44
2023-04-26T19:46:15.604Z,9.38
2023-04-26T19:48:43.203Z,9.34
2023-04-26T19:51:18.143Z,9.31
2023-04-26T19:53:45.918Z,9.40
2023-04-26T19:56:13.632Z,9.48
2023-04-26T19:58:43.476Z,9.49
2023-04-26T20:01:11.436Z,9.47
2023-04-26T20:03:40.691Z,9.49
2023-04-26T20:06:09.813Z,9.52
2023-04-26T20:08:37.203Z,9.58
2023-04-26T20:11:05.172Z,9.43
2023-04-26T20:13:33.041Z,9.41
2023-04-26T20:16:00.801Z,9.21
2023-04-26T20:18:28.374Z,9.11
2023-04-26T20:20:56.175Z,9.12
2023-04-26T20:23:23.478Z,8.97
2023-04-26T20:25:54.315Z,9.03
2023-04-26T20:28:24.583Z,9.11
2023-04-26T20:30:53.144Z,9.13
2023-04-26T20:33:20.570Z,9.07
2023-04-26T20:35:49.171Z,9.14
2023-04-26T20:38:16.466Z,9.11
2023-04-26T20:40:44.157Z,9.12
2023-04-26T20:43:12.795Z,9.05
2023-04-26T20:45:43.788Z,9.05
2023-04-26T20:48:11.247Z,9.04
2023-04-26T20:50:39.039Z,8.95
2023-04-26T20:53:06.680Z,8.87
2023-04-26T20:55:34.190Z,8.86
2023-04-26T20:58:01.698Z,8.86
2023-04-26T21:00:30.773Z,8.77
2023-04-26T21:02:58.305Z,8.73
2023-04-26T21:05:26.080Z,8.59
2023-04-26T21:07:53.349Z,8.42
2023-04-26T21:10:21.952Z,8.34
2023-04-26T21:12:49.169Z,8.31
2023-04-26T21:15:16.865Z,8.09
2023-04-26T21:17:44.139Z,8.06
2023-04-26T21:20:12.197Z,8.03
2023-04-26T21:22:39.432Z,8.01
2023-04-26T21:25:07.978Z,8.13
2023-04-26T21:27:35.744Z,8.00
2023-04-26T21:30:04.514Z,7.90
2023-04-26T21:32:31.920Z,7.83
2023-04-26T21:34:59.477Z,7.81
2023-04-26T21:37:26.931Z,7.78
2023-04-26T21:39:54.551Z,7.75
2023-04-26T21:42:21.790Z,7.77
2023-04-26T21:44:49.343Z,7.90
2023-04-26T21:47:16.765Z,7.87
2023-04-26T21:49:44.258Z,7.83
2023-04-26T21:52:11.777Z,7.65
2023-04-26T21:54:39.654Z,7.63
2023-04-26T21:57:07.158Z,7.73
2023-04-26T21:59:35.321Z,7.79
2023-04-26T22:02:03.650Z,7.82
2023-04-26T22:04:32.012Z,7.86
2023-04-26T22:06:59.313Z,7.85
2023-04-26T22:09:26.847Z,7.66
2023-04-26T22:11:55.072Z,7.72
2023-04-26T22:14:22.730Z,7.76
2023-04-26T22:16:50.071Z,7.72
2023-04-26T22:19:17.670Z,7.65
2023-04-26T22:21:44.890Z,7.72
2023-04-26T22:24:12.410Z,7.76
2023-04-26T22:26:39.615Z,7.72
2023-04-26T22:29:07.210Z,7.69
2023-04-26T22:31:34.488Z,7.71
2023-04-26T22:34:02.225Z,7.72
2023-04-26T22:36:29.426Z,7.79
2023-04-26T22:38:59.063Z,7.80
2023-04-26T22:41:27.528Z,7.77
2023-04-26T22:43:55.100Z,7.79
2023-04-26T22:46:22.430Z,7.58
2023-04-26T22:48:49.944Z,7.45
2023-04-26T22:51:17.270Z,7.66
2023-04-26T22:53:44.789Z,7.63
2023-04-26T22:56:12.043Z,7.74
2023-04-26T22:58:39.563Z,7.72
2023-04-26T23:01:06.962Z,7.60
2023-04-26T23:03:37.893Z,7.62
2023-04-26T23:06:06.075Z,7.76
2023-04-26T23:08:33.669Z,7.85
2023-04-26T23:11:01.086Z,7.77
2023-04-26T23:13:29.668Z,7.81
2023-04-26T23:15:57.154Z,7.75
2023-04-26T23:18:26.565Z,7.70
2023-04-26T23:20:53.975Z,7.69
2023-04-26T23:23:21.538Z,7.66
2023-04-26T23:25:48.959Z,7.72
2023-04-26T23:28:16.459Z,7.88
2023-04-26T23:30:43.777Z,7.82
2023-04-26T23:33:11.282Z,7.84
2023-04-26T23:35:42.458Z,7.85
2023-04-26T23:38:10.085Z,7.93
2023-04-26T23:40:37.414Z,8.01
2023-04-26T23:43:06.293Z,7.93
2023-04-26T23:45:33.648Z,7.96
2023-04-26T23:48:01.992Z,7.94
2023-04-26T23:50:29.330Z,7.93
2023-04-26T23:52:57.035Z,7.64
2023-04-26T23:55:24.319Z,7.74
2023-04-26T23:57:51.917Z,7.71
